Main page
METAR-TAF:

METAR-TAF

Airports :

Angoulême – Cognac International Airport

Angoulême, France

latitude: 45-43-46N, longitude: 00-13-08E, elevation: 132 m

Current weather observation

The report was made 42 minutes ago, at 05:00 UTC
Wind 5 kt from the East/Southeast
Temperature 19°C
Humidity 49%
Pressure 1017 hPa
Visibility 10 km or more
no clouds below 1500 m and no cumulonimbus

METAR: LFBU 240500Z AUTO 12005KT CAVOK 19/08 Q1017

Time: 07:42 (05:42 UTC)

Forecast

The report was made 42 minutes ago, at 05:00 UTC
Forecast valid from 24 at 06 UTC to 25 at 06 UTC
Wind 2 kt from variable directions
Visibility 10 km or more
no clouds below 1500 m and no cumulonimbus
Becoming
from 24 at 06 UTC to 24 at 08 UTC
Wind 5 kt from the East/Southeast
Temporary
from 25 at 03 UTC to 25 at 06 UTC
Overcast at a height of 1000 ft

TAF: LFBU 240500Z 2406/2506 VRB02KT CAVOK BECMG 2406/2408 12005KT TEMPO 2503/2506 OVC010

Weather observations and forecasts of more than 4000 airports (METAR and TAF reports).

The available stations are represented by yellow and red dots on the map.

Hover mouse over dot to see the name of the station.

Then click to see weather observations and forecasts.

To change the map : click on the green buttons with a black cross to zoom in, on the green button with a dash to zoom out, or on the green arrows for adjacent maps.


METAR-TAF: